sensor_id;sensor_type;location;lat;lon;timestamp;P1;durP1;ratioP1;P2;durP2;ratioP2
6199;SDS011;3133;43.214;27.906;2022-12-05T00:00:04;1.90;;;1.63;;
6199;SDS011;3133;43.214;27.906;2022-12-05T00:02:32;1.70;;;1.60;;
6199;SDS011;3133;43.214;27.906;2022-12-05T00:05:00;1.70;;;1.60;;
6199;SDS011;3133;43.214;27.906;2022-12-05T00:07:27;1.60;;;1.50;;
6199;SDS011;3133;43.214;27.906;2022-12-05T00:09:54;1.77;;;1.67;;
6199;SDS011;3133;43.214;27.906;2022-12-05T00:12:22;1.60;;;1.50;;
6199;SDS011;3133;43.214;27.906;2022-12-05T00:14:49;1.87;;;1.77;;
6199;SDS011;3133;43.214;27.906;2022-12-05T00:17:16;2.60;;;1.83;;
6199;SDS011;3133;43.214;27.906;2022-12-05T00:19:43;1.70;;;1.60;;
6199;SDS011;3133;43.214;27.906;2022-12-05T00:22:10;1.90;;;1.80;;
6199;SDS011;3133;43.214;27.906;2022-12-05T00:24:37;1.77;;;1.67;;
6199;SDS011;3133;43.214;27.906;2022-12-05T00:27:04;1.50;;;1.43;;
6199;SDS011;3133;43.214;27.906;2022-12-05T00:29:33;1.60;;;1.50;;
6199;SDS011;3133;43.214;27.906;2022-12-05T00:32:00;1.70;;;1.60;;
6199;SDS011;3133;43.214;27.906;2022-12-05T00:34:26;1.93;;;1.83;;
6199;SDS011;3133;43.214;27.906;2022-12-05T00:36:53;1.10;;;1.10;;
6199;SDS011;3133;43.214;27.906;2022-12-05T00:39:20;1.60;;;1.50;;
6199;SDS011;3133;43.214;27.906;2022-12-05T00:41:47;1.27;;;1.17;;
6199;SDS011;3133;43.214;27.906;2022-12-05T00:44:14;1.70;;;1.60;;
6199;SDS011;3133;43.214;27.906;2022-12-05T00:46:42;1.57;;;1.47;;
6199;SDS011;3133;43.214;27.906;2022-12-05T00:49:09;1.43;;;1.33;;
6199;SDS011;3133;43.214;27.906;2022-12-05T00:51:37;2.00;;;1.57;;
6199;SDS011;3133;43.214;27.906;2022-12-05T00:54:06;2.03;;;1.67;;
6199;SDS011;3133;43.214;27.906;2022-12-05T00:56:35;1.60;;;1.50;;
6199;SDS011;3133;43.214;27.906;2022-12-05T00:59:03;3.13;;;1.93;;
6199;SDS011;3133;43.214;27.906;2022-12-05T01:01:31;1.50;;;1.40;;
6199;SDS011;3133;43.214;27.906;2022-12-05T01:04:02;1.70;;;1.60;;
6199;SDS011;3133;43.214;27.906;2022-12-05T01:06:31;1.83;;;1.73;;
6199;SDS011;3133;43.214;27.906;2022-12-05T01:08:58;2.17;;;2.00;;
6199;SDS011;3133;43.214;27.906;2022-12-05T01:11:25;1.67;;;1.57;;
6199;SDS011;3133;43.214;27.906;2022-12-05T01:13:52;3.47;;;2.27;;
6199;SDS011;3133;43.214;27.906;2022-12-05T01:16:20;2.00;;;1.73;;
6199;SDS011;3133;43.214;27.906;2022-12-05T01:18:50;3.50;;;2.30;;
6199;SDS011;3133;43.214;27.906;2022-12-05T01:21:19;1.90;;;1.80;;
6199;SDS011;3133;43.214;27.906;2022-12-05T01:23:46;1.67;;;1.57;;
6199;SDS011;3133;43.214;27.906;2022-12-05T01:26:14;1.60;;;1.50;;
6199;SDS011;3133;43.214;27.906;2022-12-05T01:28:42;1.50;;;1.40;;
6199;SDS011;3133;43.214;27.906;2022-12-05T01:31:12;2.37;;;1.90;;
6199;SDS011;3133;43.214;27.906;2022-12-05T01:33:43;1.93;;;1.83;;
6199;SDS011;3133;43.214;27.906;2022-12-05T01:36:10;1.90;;;1.57;;
6199;SDS011;3133;43.214;27.906;2022-12-05T01:38:39;1.30;;;1.30;;
6199;SDS011;3133;43.214;27.906;2022-12-05T01:41:08;1.43;;;1.33;;
6199;SDS011;3133;43.214;27.906;2022-12-05T01:43:57;1.27;;;1.27;;
6199;SDS011;3133;43.214;27.906;2022-12-05T01:46:27;2.00;;;1.80;;
6199;SDS011;3133;43.214;27.906;2022-12-05T01:48:57;1.83;;;1.30;;
6199;SDS011;3133;43.214;27.906;2022-12-05T01:51:27;1.30;;;1.30;;
6199;SDS011;3133;43.214;27.906;2022-12-05T01:53:56;1.87;;;1.77;;
6199;SDS011;3133;43.214;27.906;2022-12-05T01:56:24;1.57;;;1.47;;
6199;SDS011;3133;43.214;27.906;2022-12-05T01:58:51;1.30;;;1.20;;
6199;SDS011;3133;43.214;27.906;2022-12-05T02:01:21;1.60;;;1.50;;
6199;SDS011;3133;43.214;27.906;2022-12-05T02:03:48;1.20;;;1.20;;
6199;SDS011;3133;43.214;27.906;2022-12-05T02:06:18;1.77;;;1.67;;
6199;SDS011;3133;43.214;27.906;2022-12-05T02:08:46;1.47;;;1.40;;
6199;SDS011;3133;43.214;27.906;2022-12-05T02:11:14;1.67;;;1.57;;
6199;SDS011;3133;43.214;27.906;2022-12-05T02:13:49;1.60;;;1.50;;
6199;SDS011;3133;43.214;27.906;2022-12-05T02:16:27;1.30;;;1.30;;
6199;SDS011;3133;43.214;27.906;2022-12-05T02:19:06;1.80;;;1.70;;
6199;SDS011;3133;43.214;27.906;2022-12-05T02:24:52;1.53;;;1.43;;
6199;SDS011;3133;43.214;27.906;2022-12-05T02:27:42;1.30;;;1.30;;
6199;SDS011;3133;43.214;27.906;2022-12-05T02:30:24;1.67;;;1.57;;
6199;SDS011;3133;43.214;27.906;2022-12-05T02:32:59;1.70;;;1.60;;
6199;SDS011;3133;43.214;27.906;2022-12-05T02:35:36;1.70;;;1.60;;
6199;SDS011;3133;43.214;27.906;2022-12-05T02:38:12;1.40;;;1.30;;
6199;SDS011;3133;43.214;27.906;2022-12-05T02:40:48;1.77;;;1.67;;
6199;SDS011;3133;43.214;27.906;2022-12-05T02:43:21;1.90;;;1.80;;
6199;SDS011;3133;43.214;27.906;2022-12-05T02:45:56;1.73;;;1.50;;
6199;SDS011;3133;43.214;27.906;2022-12-05T02:48:26;1.23;;;1.23;;
6199;SDS011;3133;43.214;27.906;2022-12-05T02:50:54;1.70;;;1.60;;
6199;SDS011;3133;43.214;27.906;2022-12-05T02:53:25;2.00;;;1.90;;
6199;SDS011;3133;43.214;27.906;2022-12-05T02:55:55;1.10;;;1.10;;
6199;SDS011;3133;43.214;27.906;2022-12-05T02:58:23;1.10;;;1.10;;
6199;SDS011;3133;43.214;27.906;2022-12-05T03:00:57;2.13;;;1.70;;
6199;SDS011;3133;43.214;27.906;2022-12-05T03:03:24;3.77;;;2.10;;
6199;SDS011;3133;43.214;27.906;2022-12-05T03:05:54;1.80;;;1.70;;
6199;SDS011;3133;43.214;27.906;2022-12-05T03:08:27;1.93;;;1.83;;
6199;SDS011;3133;43.214;27.906;2022-12-05T03:11:00;1.70;;;1.60;;
6199;SDS011;3133;43.214;27.906;2022-12-05T03:13:30;2.53;;;2.00;;
6199;SDS011;3133;43.214;27.906;2022-12-05T03:16:04;2.33;;;1.70;;
6199;SDS011;3133;43.214;27.906;2022-12-05T03:18:36;1.83;;;1.67;;
6199;SDS011;3133;43.214;27.906;2022-12-05T03:21:07;1.60;;;1.50;;
6199;SDS011;3133;43.214;27.906;2022-12-05T03:23:44;1.70;;;1.60;;
6199;SDS011;3133;43.214;27.906;2022-12-05T03:26:17;2.60;;;1.80;;
6199;SDS011;3133;43.214;27.906;2022-12-05T03:29:00;1.70;;;1.60;;
6199;SDS011;3133;43.214;27.906;2022-12-05T03:31:38;2.00;;;1.90;;
6199;SDS011;3133;43.214;27.906;2022-12-05T03:34:13;1.53;;;1.43;;
6199;SDS011;3133;43.214;27.906;2022-12-05T03:36:48;1.77;;;1.60;;
6199;SDS011;3133;43.214;27.906;2022-12-05T03:39:17;1.90;;;1.80;;
6199;SDS011;3133;43.214;27.906;2022-12-05T03:41:51;2.50;;;1.90;;
6199;SDS011;3133;43.214;27.906;2022-12-05T03:44:26;1.70;;;1.60;;
6199;SDS011;3133;43.214;27.906;2022-12-05T03:47:00;1.60;;;1.50;;
6199;SDS011;3133;43.214;27.906;2022-12-05T03:49:35;1.37;;;1.37;;
6199;SDS011;3133;43.214;27.906;2022-12-05T03:52:07;2.87;;;1.60;;
6199;SDS011;3133;43.214;27.906;2022-12-05T03:54:38;1.70;;;1.60;;
6199;SDS011;3133;43.214;27.906;2022-12-05T03:57:10;1.87;;;1.77;;
6199;SDS011;3133;43.214;27.906;2022-12-05T03:59:42;2.07;;;1.90;;
6199;SDS011;3133;43.214;27.906;2022-12-05T04:02:18;3.50;;;1.97;;
6199;SDS011;3133;43.214;27.906;2022-12-05T04:04:52;2.13;;;1.93;;
6199;SDS011;3133;43.214;27.906;2022-12-05T04:07:21;2.33;;;2.10;;
6199;SDS011;3133;43.214;27.906;2022-12-05T04:09:51;2.17;;;1.97;;
6199;SDS011;3133;43.214;27.906;2022-12-05T04:12:22;2.00;;;1.90;;
6199;SDS011;3133;43.214;27.906;2022-12-05T04:14:53;2.47;;;2.27;;
6199;SDS011;3133;43.214;27.906;2022-12-05T04:17:25;2.30;;;2.10;;
6199;SDS011;3133;43.214;27.906;2022-12-05T04:19:59;2.23;;;2.03;;
6199;SDS011;3133;43.214;27.906;2022-12-05T04:22:48;1.97;;;1.87;;
6199;SDS011;3133;43.214;27.906;2022-12-05T04:25:17;2.30;;;2.10;;
6199;SDS011;3133;43.214;27.906;2022-12-05T04:28:03;3.27;;;2.20;;
6199;SDS011;3133;43.214;27.906;2022-12-05T04:30:42;2.30;;;2.13;;
6199;SDS011;3133;43.214;27.906;2022-12-05T04:33:15;2.70;;;2.50;;
6199;SDS011;3133;43.214;27.906;2022-12-05T04:35:49;2.37;;;2.17;;
6199;SDS011;3133;43.214;27.906;2022-12-05T04:38:20;2.13;;;2.03;;
6199;SDS011;3133;43.214;27.906;2022-12-05T04:40:52;2.13;;;2.03;;
6199;SDS011;3133;43.214;27.906;2022-12-05T04:43:22;2.40;;;2.20;;
6199;SDS011;3133;43.214;27.906;2022-12-05T04:45:51;2.47;;;2.20;;
6199;SDS011;3133;43.214;27.906;2022-12-05T04:48:22;2.47;;;2.27;;
6199;SDS011;3133;43.214;27.906;2022-12-05T04:50:53;3.03;;;2.30;;
6199;SDS011;3133;43.214;27.906;2022-12-05T04:53:22;2.37;;;2.17;;
6199;SDS011;3133;43.214;27.906;2022-12-05T04:55:53;3.10;;;2.33;;
6199;SDS011;3133;43.214;27.906;2022-12-05T04:58:24;1.23;;;1.23;;
6199;SDS011;3133;43.214;27.906;2022-12-05T05:00:53;2.60;;;2.40;;
6199;SDS011;3133;43.214;27.906;2022-12-05T05:03:26;3.27;;;1.87;;
6199;SDS011;3133;43.214;27.906;2022-12-05T05:05:56;2.60;;;2.30;;
6199;SDS011;3133;43.214;27.906;2022-12-05T05:08:24;2.20;;;2.10;;
6199;SDS011;3133;43.214;27.906;2022-12-05T05:11:03;3.30;;;2.20;;
6199;SDS011;3133;43.214;27.906;2022-12-05T05:13:36;2.83;;;2.50;;
6199;SDS011;3133;43.214;27.906;2022-12-05T05:16:03;2.33;;;2.13;;
6199;SDS011;3133;43.214;27.906;2022-12-05T05:18:32;2.60;;;2.40;;
6199;SDS011;3133;43.214;27.906;2022-12-05T05:20:59;2.60;;;2.37;;
6199;SDS011;3133;43.214;27.906;2022-12-05T05:23:26;3.03;;;2.43;;
6199;SDS011;3133;43.214;27.906;2022-12-05T05:25:53;2.70;;;2.40;;
6199;SDS011;3133;43.214;27.906;2022-12-05T05:28:21;2.30;;;2.10;;
6199;SDS011;3133;43.214;27.906;2022-12-05T05:30:49;2.60;;;2.40;;
6199;SDS011;3133;43.214;27.906;2022-12-05T05:33:15;2.30;;;2.10;;
6199;SDS011;3133;43.214;27.906;2022-12-05T05:35:44;2.80;;;2.03;;
6199;SDS011;3133;43.214;27.906;2022-12-05T05:38:11;1.90;;;1.80;;
6199;SDS011;3133;43.214;27.906;2022-12-05T05:40:37;2.20;;;2.10;;
6199;SDS011;3133;43.214;27.906;2022-12-05T05:43:05;2.40;;;2.20;;
6199;SDS011;3133;43.214;27.906;2022-12-05T05:45:32;1.70;;;1.60;;
6199;SDS011;3133;43.214;27.906;2022-12-05T05:47:59;2.70;;;2.10;;
6199;SDS011;3133;43.214;27.906;2022-12-05T05:50:26;2.80;;;2.50;;
6199;SDS011;3133;43.214;27.906;2022-12-05T05:52:54;2.43;;;2.23;;
6199;SDS011;3133;43.214;27.906;2022-12-05T05:55:21;3.10;;;2.47;;
6199;SDS011;3133;43.214;27.906;2022-12-05T05:57:48;2.47;;;2.27;;
6199;SDS011;3133;43.214;27.906;2022-12-05T06:00:16;3.20;;;2.43;;
6199;SDS011;3133;43.214;27.906;2022-12-05T06:02:43;1.93;;;1.73;;
6199;SDS011;3133;43.214;27.906;2022-12-05T06:05:10;2.83;;;2.13;;
6199;SDS011;3133;43.214;27.906;2022-12-05T06:07:37;1.40;;;1.37;;
6199;SDS011;3133;43.214;27.906;2022-12-05T06:10:06;2.20;;;2.10;;
6199;SDS011;3133;43.214;27.906;2022-12-05T06:12:33;1.30;;;1.30;;
6199;SDS011;3133;43.214;27.906;2022-12-05T06:15:00;2.00;;;1.90;;
6199;SDS011;3133;43.214;27.906;2022-12-05T06:17:27;3.13;;;2.30;;
6199;SDS011;3133;43.214;27.906;2022-12-05T06:19:54;2.10;;;2.00;;
6199;SDS011;3133;43.214;27.906;2022-12-05T06:22:21;2.10;;;2.00;;
6199;SDS011;3133;43.214;27.906;2022-12-05T06:24:48;3.17;;;2.70;;
6199;SDS011;3133;43.214;27.906;2022-12-05T06:27:17;3.60;;;2.63;;
6199;SDS011;3133;43.214;27.906;2022-12-05T06:29:43;2.30;;;2.10;;
6199;SDS011;3133;43.214;27.906;2022-12-05T06:32:10;2.37;;;2.17;;
6199;SDS011;3133;43.214;27.906;2022-12-05T06:34:37;2.70;;;2.50;;
6199;SDS011;3133;43.214;27.906;2022-12-05T06:37:04;4.57;;;2.67;;
6199;SDS011;3133;43.214;27.906;2022-12-05T06:39:31;3.47;;;2.93;;
6199;SDS011;3133;43.214;27.906;2022-12-05T06:41:58;2.63;;;2.20;;
6199;SDS011;3133;43.214;27.906;2022-12-05T06:44:26;5.90;;;2.37;;
6199;SDS011;3133;43.214;27.906;2022-12-05T06:46:54;1.93;;;1.83;;
6199;SDS011;3133;43.214;27.906;2022-12-05T06:49:21;2.77;;;2.40;;
6199;SDS011;3133;43.214;27.906;2022-12-05T06:51:50;2.80;;;2.50;;
6199;SDS011;3133;43.214;27.906;2022-12-05T06:54:18;1.90;;;1.80;;
6199;SDS011;3133;43.214;27.906;2022-12-05T06:56:45;1.60;;;1.50;;
6199;SDS011;3133;43.214;27.906;2022-12-05T06:59:12;4.33;;;2.90;;
6199;SDS011;3133;43.214;27.906;2022-12-05T07:01:44;3.03;;;2.60;;
6199;SDS011;3133;43.214;27.906;2022-12-05T07:04:11;2.27;;;2.00;;
6199;SDS011;3133;43.214;27.906;2022-12-05T07:06:44;2.70;;;2.27;;
6199;SDS011;3133;43.214;27.906;2022-12-05T07:09:13;3.20;;;2.90;;
6199;SDS011;3133;43.214;27.906;2022-12-05T07:11:41;2.20;;;2.10;;
6199;SDS011;3133;43.214;27.906;2022-12-05T07:14:11;2.50;;;2.30;;
6199;SDS011;3133;43.214;27.906;2022-12-05T07:16:38;3.47;;;3.07;;
6199;SDS011;3133;43.214;27.906;2022-12-05T07:19:14;3.67;;;3.00;;
6199;SDS011;3133;43.214;27.906;2022-12-05T07:21:54;4.83;;;3.33;;
6199;SDS011;3133;43.214;27.906;2022-12-05T07:27:06;3.47;;;2.67;;
6199;SDS011;3133;43.214;27.906;2022-12-05T07:29:34;3.43;;;2.80;;
6199;SDS011;3133;43.214;27.906;2022-12-05T07:32:01;4.87;;;3.47;;
6199;SDS011;3133;43.214;27.906;2022-12-05T07:34:43;3.77;;;3.10;;
6199;SDS011;3133;43.214;27.906;2022-12-05T07:37:10;2.87;;;2.57;;
6199;SDS011;3133;43.214;27.906;2022-12-05T07:39:38;2.20;;;2.10;;
6199;SDS011;3133;43.214;27.906;2022-12-05T07:42:05;5.17;;;2.60;;
6199;SDS011;3133;43.214;27.906;2022-12-05T07:44:34;4.20;;;2.63;;
6199;SDS011;3133;43.214;27.906;2022-12-05T07:47:01;3.27;;;2.10;;
6199;SDS011;3133;43.214;27.906;2022-12-05T07:49:28;4.77;;;3.50;;
6199;SDS011;3133;43.214;27.906;2022-12-05T07:51:57;2.97;;;2.70;;
6199;SDS011;3133;43.214;27.906;2022-12-05T07:54:24;3.63;;;2.90;;
6199;SDS011;3133;43.214;27.906;2022-12-05T07:56:51;3.23;;;2.73;;
6199;SDS011;3133;43.214;27.906;2022-12-05T07:59:18;4.80;;;3.07;;
6199;SDS011;3133;43.214;27.906;2022-12-05T08:01:45;4.20;;;2.70;;
6199;SDS011;3133;43.214;27.906;2022-12-05T08:04:12;5.47;;;3.67;;
6199;SDS011;3133;43.214;27.906;2022-12-05T08:06:39;5.17;;;3.40;;
6199;SDS011;3133;43.214;27.906;2022-12-05T08:09:08;2.03;;;1.40;;
6199;SDS011;3133;43.214;27.906;2022-12-05T08:11:35;4.33;;;3.23;;
6199;SDS011;3133;43.214;27.906;2022-12-05T08:14:03;3.50;;;2.97;;
6199;SDS011;3133;43.214;27.906;2022-12-05T08:16:32;7.93;;;2.07;;
6199;SDS011;3133;43.214;27.906;2022-12-05T08:18:59;2.27;;;2.07;;
6199;SDS011;3133;43.214;27.906;2022-12-05T08:21:28;13.70;;;3.13;;
6199;SDS011;3133;43.214;27.906;2022-12-05T08:23:57;3.80;;;3.03;;
6199;SDS011;3133;43.214;27.906;2022-12-05T08:26:26;2.03;;;1.93;;
6199;SDS011;3133;43.214;27.906;2022-12-05T08:28:55;3.40;;;2.93;;
6199;SDS011;3133;43.214;27.906;2022-12-05T08:31:24;3.23;;;2.40;;
6199;SDS011;3133;43.214;27.906;2022-12-05T08:33:55;2.90;;;2.50;;
6199;SDS011;3133;43.214;27.906;2022-12-05T08:36:22;6.53;;;2.00;;
6199;SDS011;3133;43.214;27.906;2022-12-05T08:38:54;4.00;;;3.00;;
6199;SDS011;3133;43.214;27.906;2022-12-05T08:41:21;2.60;;;2.40;;
6199;SDS011;3133;43.214;27.906;2022-12-05T08:43:54;3.73;;;2.50;;
6199;SDS011;3133;43.214;27.906;2022-12-05T08:46:21;3.53;;;2.90;;
6199;SDS011;3133;43.214;27.906;2022-12-05T08:48:48;2.47;;;2.20;;
6199;SDS011;3133;43.214;27.906;2022-12-05T08:51:15;2.63;;;2.33;;
6199;SDS011;3133;43.214;27.906;2022-12-05T08:53:42;1.83;;;1.73;;
6199;SDS011;3133;43.214;27.906;2022-12-05T08:56:09;5.73;;;2.50;;
6199;SDS011;3133;43.214;27.906;2022-12-05T08:58:36;3.83;;;2.30;;
6199;SDS011;3133;43.214;27.906;2022-12-05T09:01:05;2.67;;;2.10;;
6199;SDS011;3133;43.214;27.906;2022-12-05T09:03:33;3.00;;;2.40;;
6199;SDS011;3133;43.214;27.906;2022-12-05T09:06:09;5.20;;;2.43;;
6199;SDS011;3133;43.214;27.906;2022-12-05T09:08:39;5.57;;;2.87;;
6199;SDS011;3133;43.214;27.906;2022-12-05T09:11:08;2.90;;;2.60;;
6199;SDS011;3133;43.214;27.906;2022-12-05T09:13:40;4.63;;;2.70;;
6199;SDS011;3133;43.214;27.906;2022-12-05T09:16:10;4.60;;;2.50;;
6199;SDS011;3133;43.214;27.906;2022-12-05T09:18:38;3.43;;;1.90;;
6199;SDS011;3133;43.214;27.906;2022-12-05T09:21:06;3.30;;;2.57;;
6199;SDS011;3133;43.214;27.906;2022-12-05T09:23:33;6.40;;;3.27;;
6199;SDS011;3133;43.214;27.906;2022-12-05T09:26:01;3.80;;;2.73;;
6199;SDS011;3133;43.214;27.906;2022-12-05T09:28:30;2.00;;;1.80;;
6199;SDS011;3133;43.214;27.906;2022-12-05T09:31:00;1.73;;;1.57;;
6199;SDS011;3133;43.214;27.906;2022-12-05T09:33:31;2.03;;;1.93;;
6199;SDS011;3133;43.214;27.906;2022-12-05T09:36:00;2.87;;;2.43;;
6199;SDS011;3133;43.214;27.906;2022-12-05T09:38:28;3.90;;;2.97;;
6199;SDS011;3133;43.214;27.906;2022-12-05T09:40:59;2.97;;;2.73;;
6199;SDS011;3133;43.214;27.906;2022-12-05T09:43:36;2.37;;;2.17;;
6199;SDS011;3133;43.214;27.906;2022-12-05T09:46:15;2.30;;;2.10;;
6199;SDS011;3133;43.214;27.906;2022-12-05T09:48:48;1.43;;;1.43;;
6199;SDS011;3133;43.214;27.906;2022-12-05T09:51:19;2.10;;;1.90;;
6199;SDS011;3133;43.214;27.906;2022-12-05T09:53:49;2.90;;;2.70;;
6199;SDS011;3133;43.214;27.906;2022-12-05T09:56:19;2.77;;;2.40;;
6199;SDS011;3133;43.214;27.906;2022-12-05T09:58:49;3.70;;;3.03;;
6199;SDS011;3133;43.214;27.906;2022-12-05T10:01:22;2.30;;;2.10;;
6199;SDS011;3133;43.214;27.906;2022-12-05T10:06:49;3.93;;;2.90;;
6199;SDS011;3133;43.214;27.906;2022-12-05T10:09:29;2.37;;;2.17;;
6199;SDS011;3133;43.214;27.906;2022-12-05T10:12:20;4.07;;;2.73;;
6199;SDS011;3133;43.214;27.906;2022-12-05T10:15:19;1.90;;;1.80;;
6199;SDS011;3133;43.214;27.906;2022-12-05T10:17:55;2.60;;;2.17;;
6199;SDS011;3133;43.214;27.906;2022-12-05T10:20:31;3.20;;;2.20;;
6199;SDS011;3133;43.214;27.906;2022-12-05T10:23:02;5.73;;;3.20;;
6199;SDS011;3133;43.214;27.906;2022-12-05T10:25:34;2.07;;;1.93;;
6199;SDS011;3133;43.214;27.906;2022-12-05T10:28:10;3.50;;;2.40;;
6199;SDS011;3133;43.214;27.906;2022-12-05T10:30:52;5.43;;;3.10;;
6199;SDS011;3133;43.214;27.906;2022-12-05T10:33:25;2.40;;;2.20;;
6199;SDS011;3133;43.214;27.906;2022-12-05T10:36:07;6.10;;;3.07;;
6199;SDS011;3133;43.214;27.906;2022-12-05T10:38:36;4.00;;;2.70;;
6199;SDS011;3133;43.214;27.906;2022-12-05T10:41:05;5.73;;;3.00;;
6199;SDS011;3133;43.214;27.906;2022-12-05T10:43:34;2.33;;;2.10;;
6199;SDS011;3133;43.214;27.906;2022-12-05T10:46:05;3.10;;;2.33;;
6199;SDS011;3133;43.214;27.906;2022-12-05T10:48:33;3.70;;;2.90;;
6199;SDS011;3133;43.214;27.906;2022-12-05T10:51:02;11.20;;;2.33;;
6199;SDS011;3133;43.214;27.906;2022-12-05T10:53:37;2.87;;;2.33;;
6199;SDS011;3133;43.214;27.906;2022-12-05T10:59:05;1.90;;;1.80;;
6199;SDS011;3133;43.214;27.906;2022-12-05T11:01:34;2.57;;;2.37;;
6199;SDS011;3133;43.214;27.906;2022-12-05T11:04:04;6.60;;;3.73;;
6199;SDS011;3133;43.214;27.906;2022-12-05T11:06:37;5.77;;;4.17;;
6199;SDS011;3133;43.214;27.906;2022-12-05T11:09:16;3.27;;;2.97;;
6199;SDS011;3133;43.214;27.906;2022-12-05T11:11:55;4.87;;;3.00;;
6199;SDS011;3133;43.214;27.906;2022-12-05T11:14:52;5.03;;;3.20;;
6199;SDS011;3133;43.214;27.906;2022-12-05T11:17:42;5.20;;;4.03;;
6199;SDS011;3133;43.214;27.906;2022-12-05T11:23:04;5.83;;;3.37;;
6199;SDS011;3133;43.214;27.906;2022-12-05T11:25:46;4.47;;;3.17;;
6199;SDS011;3133;43.214;27.906;2022-12-05T11:28:29;3.20;;;2.13;;
6199;SDS011;3133;43.214;27.906;2022-12-05T11:31:03;4.00;;;2.90;;
6199;SDS011;3133;43.214;27.906;2022-12-05T11:33:33;2.87;;;2.57;;
6199;SDS011;3133;43.214;27.906;2022-12-05T11:36:08;3.33;;;2.53;;
6199;SDS011;3133;43.214;27.906;2022-12-05T11:38:39;4.93;;;3.43;;
6199;SDS011;3133;43.214;27.906;2022-12-05T11:41:13;4.03;;;3.40;;
6199;SDS011;3133;43.214;27.906;2022-12-05T11:46:46;5.03;;;3.80;;
6199;SDS011;3133;43.214;27.906;2022-12-05T11:49:24;3.73;;;3.00;;
6199;SDS011;3133;43.214;27.906;2022-12-05T11:52:06;5.03;;;3.33;;
6199;SDS011;3133;43.214;27.906;2022-12-05T11:54:59;9.07;;;3.17;;
6199;SDS011;3133;43.214;27.906;2022-12-05T12:10:20;3.70;;;3.00;;
6199;SDS011;3133;43.214;27.906;2022-12-05T12:13:14;2.87;;;2.30;;
6199;SDS011;3133;43.214;27.906;2022-12-05T12:16:06;4.93;;;2.93;;
6199;SDS011;3133;43.214;27.906;2022-12-05T12:21:59;2.73;;;2.53;;
6199;SDS011;3133;43.214;27.906;2022-12-05T12:27:33;3.80;;;3.00;;
6199;SDS011;3133;43.214;27.906;2022-12-05T12:30:13;5.23;;;3.07;;
6199;SDS011;3133;43.214;27.906;2022-12-05T12:32:49;1.37;;;1.37;;
6199;SDS011;3133;43.214;27.906;2022-12-05T12:35:41;6.17;;;5.20;;
6199;SDS011;3133;43.214;27.906;2022-12-05T12:38:31;4.17;;;2.97;;
6199;SDS011;3133;43.214;27.906;2022-12-05T12:41:16;5.27;;;3.70;;
6199;SDS011;3133;43.214;27.906;2022-12-05T12:44:02;2.57;;;2.37;;
6199;SDS011;3133;43.214;27.906;2022-12-05T12:46:44;3.17;;;2.10;;
6199;SDS011;3133;43.214;27.906;2022-12-05T12:49:22;4.90;;;2.70;;
6199;SDS011;3133;43.214;27.906;2022-12-05T12:52:03;3.10;;;2.53;;
6199;SDS011;3133;43.214;27.906;2022-12-05T12:54:40;3.33;;;2.60;;
6199;SDS011;3133;43.214;27.906;2022-12-05T12:57:21;2.73;;;2.53;;
6199;SDS011;3133;43.214;27.906;2022-12-05T13:00:00;7.17;;;4.30;;
6199;SDS011;3133;43.214;27.906;2022-12-05T13:02:38;3.37;;;3.07;;
6199;SDS011;3133;43.214;27.906;2022-12-05T13:05:15;4.00;;;3.23;;
6199;SDS011;3133;43.214;27.906;2022-12-05T13:07:49;4.80;;;3.23;;
6199;SDS011;3133;43.214;27.906;2022-12-05T13:10:32;3.30;;;2.70;;
6199;SDS011;3133;43.214;27.906;2022-12-05T13:13:05;6.07;;;3.33;;
6199;SDS011;3133;43.214;27.906;2022-12-05T13:15:37;5.00;;;3.13;;
6199;SDS011;3133;43.214;27.906;2022-12-05T13:18:11;4.20;;;3.03;;
6199;SDS011;3133;43.214;27.906;2022-12-05T13:20:42;7.30;;;2.90;;
6199;SDS011;3133;43.214;27.906;2022-12-05T13:23:17;3.80;;;2.93;;
6199;SDS011;3133;43.214;27.906;2022-12-05T13:25:45;5.60;;;3.33;;
6199;SDS011;3133;43.214;27.906;2022-12-05T13:28:22;2.30;;;2.10;;
6199;SDS011;3133;43.214;27.906;2022-12-05T13:30:54;4.50;;;2.50;;
6199;SDS011;3133;43.214;27.906;2022-12-05T13:33:28;2.67;;;2.20;;
6199;SDS011;3133;43.214;27.906;2022-12-05T13:36:02;9.07;;;2.60;;
6199;SDS011;3133;43.214;27.906;2022-12-05T13:38:55;4.07;;;3.27;;
6199;SDS011;3133;43.214;27.906;2022-12-05T13:41:46;6.23;;;2.90;;
6199;SDS011;3133;43.214;27.906;2022-12-05T13:44:38;8.47;;;2.80;;
6199;SDS011;3133;43.214;27.906;2022-12-05T13:47:18;2.70;;;2.50;;
6199;SDS011;3133;43.214;27.906;2022-12-05T13:49:51;4.33;;;3.23;;
6199;SDS011;3133;43.214;27.906;2022-12-05T13:52:22;4.53;;;3.30;;
6199;SDS011;3133;43.214;27.906;2022-12-05T13:54:53;3.40;;;3.00;;
6199;SDS011;3133;43.214;27.906;2022-12-05T14:00:27;3.93;;;2.87;;
6199;SDS011;3133;43.214;27.906;2022-12-05T14:02:57;4.33;;;3.30;;
6199;SDS011;3133;43.214;27.906;2022-12-05T14:05:36;5.30;;;3.10;;
6199;SDS011;3133;43.214;27.906;2022-12-05T14:11:18;3.33;;;2.80;;
6199;SDS011;3133;43.214;27.906;2022-12-05T14:13:45;5.80;;;3.70;;
6199;SDS011;3133;43.214;27.906;2022-12-05T14:22:16;5.33;;;3.37;;
6199;SDS011;3133;43.214;27.906;2022-12-05T14:25:00;2.50;;;2.30;;
6199;SDS011;3133;43.214;27.906;2022-12-05T14:27:42;3.80;;;3.40;;
6199;SDS011;3133;43.214;27.906;2022-12-05T14:30:19;4.17;;;3.40;;
6199;SDS011;3133;43.214;27.906;2022-12-05T14:32:50;2.27;;;2.07;;
6199;SDS011;3133;43.214;27.906;2022-12-05T14:35:20;5.80;;;3.20;;
6199;SDS011;3133;43.214;27.906;2022-12-05T14:37:53;3.63;;;3.27;;
6199;SDS011;3133;43.214;27.906;2022-12-05T14:40:24;4.77;;;4.03;;
6199;SDS011;3133;43.214;27.906;2022-12-05T14:42:56;9.87;;;5.07;;
6199;SDS011;3133;43.214;27.906;2022-12-05T14:45:28;7.07;;;4.60;;
6199;SDS011;3133;43.214;27.906;2022-12-05T14:48:25;7.63;;;4.53;;
6199;SDS011;3133;43.214;27.906;2022-12-05T14:50:59;6.93;;;5.30;;
6199;SDS011;3133;43.214;27.906;2022-12-05T14:53:52;5.30;;;3.27;;
6199;SDS011;3133;43.214;27.906;2022-12-05T14:56:38;7.60;;;3.70;;
6199;SDS011;3133;43.214;27.906;2022-12-05T14:59:22;6.63;;;4.80;;
6199;SDS011;3133;43.214;27.906;2022-12-05T15:01:54;7.60;;;4.90;;
6199;SDS011;3133;43.214;27.906;2022-12-05T15:07:12;5.60;;;3.33;;
6199;SDS011;3133;43.214;27.906;2022-12-05T15:09:54;7.90;;;3.30;;
6199;SDS011;3133;43.214;27.906;2022-12-05T15:12:30;3.83;;;3.20;;
6199;SDS011;3133;43.214;27.906;2022-12-05T15:15:07;7.73;;;4.00;;
6199;SDS011;3133;43.214;27.906;2022-12-05T15:17:43;5.40;;;4.00;;
6199;SDS011;3133;43.214;27.906;2022-12-05T15:20:28;5.60;;;3.43;;
6199;SDS011;3133;43.214;27.906;2022-12-05T15:23:08;3.93;;;3.17;;
6199;SDS011;3133;43.214;27.906;2022-12-05T15:26:04;3.57;;;2.70;;
6199;SDS011;3133;43.214;27.906;2022-12-05T15:28:38;5.80;;;3.83;;
6199;SDS011;3133;43.214;27.906;2022-12-05T15:31:05;6.10;;;3.73;;
6199;SDS011;3133;43.214;27.906;2022-12-05T15:33:48;4.80;;;2.90;;
6199;SDS011;3133;43.214;27.906;2022-12-05T15:36:19;5.20;;;3.60;;
6199;SDS011;3133;43.214;27.906;2022-12-05T15:38:52;6.13;;;2.87;;
6199;SDS011;3133;43.214;27.906;2022-12-05T15:41:21;2.80;;;2.60;;
6199;SDS011;3133;43.214;27.906;2022-12-05T15:43:59;3.20;;;2.90;;
6199;SDS011;3133;43.214;27.906;2022-12-05T15:46:28;5.77;;;3.13;;
6199;SDS011;3133;43.214;27.906;2022-12-05T15:49:14;3.60;;;3.30;;
6199;SDS011;3133;43.214;27.906;2022-12-05T15:51:47;1.90;;;1.70;;
6199;SDS011;3133;43.214;27.906;2022-12-05T15:54:18;3.60;;;2.97;;
6199;SDS011;3133;43.214;27.906;2022-12-05T15:56:51;3.77;;;2.90;;
6199;SDS011;3133;43.214;27.906;2022-12-05T15:59:23;6.70;;;4.43;;
6199;SDS011;3133;43.214;27.906;2022-12-05T16:01:57;17.60;;;6.27;;
6199;SDS011;3133;43.214;27.906;2022-12-05T16:04:29;6.10;;;4.10;;
6199;SDS011;3133;43.214;27.906;2022-12-05T16:07:05;6.90;;;4.03;;
6199;SDS011;3133;43.214;27.906;2022-12-05T16:09:37;5.33;;;3.63;;
6199;SDS011;3133;43.214;27.906;2022-12-05T16:12:14;4.13;;;3.10;;
6199;SDS011;3133;43.214;27.906;2022-12-05T16:14:48;3.37;;;3.07;;
6199;SDS011;3133;43.214;27.906;2022-12-05T16:17:20;7.83;;;3.73;;
6199;SDS011;3133;43.214;27.906;2022-12-05T16:19:47;4.93;;;3.30;;
6199;SDS011;3133;43.214;27.906;2022-12-05T16:22:19;3.70;;;3.30;;